Time;durP1;ratioP1;P1;durP2;ratioP2;P2;SDS_P1;SDS_P2;PMS_P1;PMS_P2;Temp;Humidity;BMP_temperature;BMP_pressure;BME280_temperature;BME280_humidity;BME280_pressure;Samples;Min_cycle;Max_cycle;Signal;HPM_P1;HPM_P2
2023/04/19 00:00:42;;;;;;;16.08;8.95;;;;;;;;;;4939559;29;20103;-82
2023/04/19 00:03:09;;;;;;;14.15;8.10;;;;;;;;;;4939920;29;20028;-82
2023/04/19 00:05:37;;;;;;;14.70;7.90;;;;;;;;;;4942765;29;20067;-82
2023/04/19 00:08:03;;;;;;;16.33;8.00;;;;;;;;;;4942541;29;20028;-82
2023/04/19 00:10:29;;;;;;;11.07;7.28;;;;;;;;;;4942816;29;20047;-82
2023/04/19 00:12:56;;;;;;;13.85;7.40;;;;;;;;;;4941655;29;20032;-83
2023/04/19 00:15:22;;;;;;;14.77;7.80;;;;;;;;;;4941865;29;20031;-82
2023/04/19 00:17:48;;;;;;;12.52;6.75;;;;;;;;;;4942904;29;20441;-82
2023/04/19 00:20:14;;;;;;;14.95;7.80;;;;;;;;;;4941621;29;20059;-83
2023/04/19 00:22:40;;;;;;;11.90;6.93;;;;;;;;;;4942512;29;20048;-82
2023/04/19 00:25:06;;;;;;;13.32;7.18;;;;;;;;;;4942683;29;20300;-82
2023/04/19 00:27:32;;;;;;;13.48;6.40;;;;;;;;;;4942284;29;20477;-83
2023/04/19 00:29:58;;;;;;;11.57;5.70;;;;;;;;;;4941567;29;20036;-82
2023/04/19 00:32:24;;;;;;;12.32;5.60;;;;;;;;;;4942336;29;20087;-82
2023/04/19 00:34:51;;;;;;;12.10;5.03;;;;;;;;;;4942440;29;20326;-83
2023/04/19 00:37:17;;;;;;;14.38;5.53;;;;;;;;;;4942193;29;20032;-82
2023/04/19 00:39:43;;;;;;;14.63;5.43;;;;;;;;;;4942271;29;20095;-82
2023/04/19 00:42:09;;;;;;;11.60;5.53;;;;;;;;;;4941189;29;20036;-82
2023/04/19 00:44:35;;;;;;;9.15;5.90;;;;;;;;;;4942095;29;20031;-81
2023/04/19 00:47:01;;;;;;;7.10;5.38;;;;;;;;;;4942101;29;20063;-81
2023/04/19 00:49:27;;;;;;;7.00;4.95;;;;;;;;;;4942073;29;20042;-81
2023/04/19 00:51:53;;;;;;;11.27;5.30;;;;;;;;;;4941858;29;20079;-82
2023/04/19 00:54:19;;;;;;;10.40;5.15;;;;;;;;;;4941818;29;20030;-82
2023/04/19 00:56:46;;;;;;;8.90;5.22;;;;;;;;;;4940923;29;20044;-81
2023/04/19 00:59:12;;;;;;;8.32;5.28;;;;;;;;;;4940880;29;20025;-81
2023/04/19 01:01:38;;;;;;;8.70;5.15;;;;;;;;;;4941989;29;20030;-81
2023/04/19 01:04:05;;;;;;;9.00;4.93;;;;;;;;;;4941859;29;20421;-81
2023/04/19 01:06:31;;;;;;;8.45;4.45;;;;;;;;;;4941732;29;20339;-81
2023/04/19 01:08:57;;;;;;;9.70;4.53;;;;;;;;;;4941891;29;20032;-81
2023/04/19 01:11:24;;;;;;;12.95;4.70;;;;;;;;;;4941651;29;20070;-82
2023/04/19 01:13:50;;;;;;;15.52;4.55;;;;;;;;;;4941661;29;20026;-81
2023/04/19 01:16:16;;;;;;;10.57;4.75;;;;;;;;;;4941625;29;20079;-82
2023/04/19 01:18:42;;;;;;;8.00;4.43;;;;;;;;;;4940487;29;20330;-81
2023/04/19 01:21:08;;;;;;;9.23;4.53;;;;;;;;;;4941385;29;20318;-81
2023/04/19 01:23:34;;;;;;;8.07;4.28;;;;;;;;;;4941443;29;20075;-81
2023/04/19 01:26:04;;;;;;;9.02;4.45;;;;;;;;;;4940251;29;20028;-81
2023/04/19 01:28:30;;;;;;;8.57;4.40;;;;;;;;;;4940268;29;20123;-82
2023/04/19 01:30:56;;;;;;;6.45;4.10;;;;;;;;;;4941212;29;20063;-81
2023/04/19 01:33:22;;;;;;;7.63;3.75;;;;;;;;;;4941591;29;20032;-81
2023/04/19 01:35:48;;;;;;;10.65;4.30;;;;;;;;;;4941269;29;20087;-81
2023/04/19 01:38:15;;;;;;;9.50;5.03;;;;;;;;;;4941089;29;20087;-81
2023/04/19 01:40:41;;;;;;;6.47;3.75;;;;;;;;;;4939880;29;20032;-81
2023/04/19 01:43:07;;;;;;;6.55;4.03;;;;;;;;;;4941377;29;20036;-81
2023/04/19 01:45:35;;;;;;;10.70;4.47;;;;;;;;;;4941084;29;20321;-82
2023/04/19 01:48:03;;;;;;;15.23;6.80;;;;;;;;;;4939913;29;20433;-82
2023/04/19 01:50:29;;;;;;;16.75;8.15;;;;;;;;;;4941143;29;20039;-82
2023/04/19 01:52:55;;;;;;;16.35;8.07;;;;;;;;;;4939867;29;20028;-82
2023/04/19 01:55:21;;;;;;;17.95;8.15;;;;;;;;;;4940611;29;20330;-82
2023/04/19 01:57:47;;;;;;;28.88;9.75;;;;;;;;;;4940701;29;20019;-81
2023/04/19 02:00:14;;;;;;;27.20;9.68;;;;;;;;;;4939655;29;20031;-82
2023/04/19 02:02:40;;;;;;;21.50;9.60;;;;;;;;;;4940540;29;20036;-82
2023/04/19 02:05:07;;;;;;;16.13;8.45;;;;;;;;;;4940887;29;20444;-82
2023/04/19 02:07:33;;;;;;;11.85;6.53;;;;;;;;;;4940686;29;20063;-82
2023/04/19 02:09:59;;;;;;;7.13;4.82;;;;;;;;;;4940522;29;20422;-81
2023/04/19 02:12:29;;;;;;;10.98;4.30;;;;;;;;;;4939470;29;20040;-81
2023/04/19 02:14:58;;;;;;;9.00;4.30;;;;;;;;;;4940474;29;20030;-81
2023/04/19 02:17:25;;;;;;;7.00;3.63;;;;;;;;;;4940530;29;20370;-82
2023/04/19 02:19:51;;;;;;;8.82;5.22;;;;;;;;;;4940477;29;20019;-81
2023/04/19 02:22:19;;;;;;;7.82;4.53;;;;;;;;;;4939811;29;20353;-81
2023/04/19 02:24:46;;;;;;;8.27;4.63;;;;;;;;;;4940111;29;20035;-81
2023/04/19 02:27:12;;;;;;;8.52;4.70;;;;;;;;;;4939981;29;20070;-81
2023/04/19 02:29:38;;;;;;;10.57;4.72;;;;;;;;;;4940395;29;20035;-81
2023/04/19 02:32:05;;;;;;;11.13;4.88;;;;;;;;;;4939063;29;20039;-81
2023/04/19 02:34:32;;;;;;;8.05;4.97;;;;;;;;;;4940060;29;20091;-81
2023/04/19 02:36:58;;;;;;;12.32;5.43;;;;;;;;;;4940076;29;20157;-82
2023/04/19 02:39:24;;;;;;;10.90;5.25;;;;;;;;;;4939218;29;20059;-82
2023/04/19 02:41:50;;;;;;;6.93;4.60;;;;;;;;;;4940008;29;20430;-82
2023/04/19 02:44:16;;;;;;;7.35;4.20;;;;;;;;;;4939093;29;20039;-82
2023/04/19 02:46:48;;;;;;;10.32;4.35;;;;;;;;;;4940189;29;20115;-82
2023/04/19 02:49:15;;;;;;;6.38;4.30;;;;;;;;;;4938901;29;20321;-81
2023/04/19 02:51:41;;;;;;;6.50;3.97;;;;;;;;;;4939856;29;20031;-82
2023/04/19 02:54:07;;;;;;;6.85;4.00;;;;;;;;;;4939969;29;20024;-81
2023/04/19 02:56:33;;;;;;;8.57;4.57;;;;;;;;;;4940177;29;20123;-81
2023/04/19 02:59:03;;;;;;;11.65;5.30;;;;;;;;;;4938915;29;20402;-81
2023/04/19 03:01:29;;;;;;;7.95;4.72;;;;;;;;;;4940144;29;20032;-81
2023/04/19 03:03:55;;;;;;;6.47;4.72;;;;;;;;;;4940168;29;20020;-81
2023/04/19 03:06:21;;;;;;;5.85;3.90;;;;;;;;;;4939716;29;20043;-81
2023/04/19 03:08:47;;;;;;;5.82;4.05;;;;;;;;;;4939434;29;20314;-81
2023/04/19 03:11:15;;;;;;;5.95;4.03;;;;;;;;;;4938723;29;20039;-82
2023/04/19 03:13:41;;;;;;;5.30;4.32;;;;;;;;;;4939562;29;20392;-81
2023/04/19 03:16:07;;;;;;;6.43;4.75;;;;;;;;;;4938815;29;20414;-81
2023/04/19 03:18:33;;;;;;;8.30;4.10;;;;;;;;;;4939736;29;20063;-81
2023/04/19 03:21:00;;;;;;;8.25;4.20;;;;;;;;;;4939677;29;20027;-82
2023/04/19 03:23:26;;;;;;;9.20;4.57;;;;;;;;;;4939468;29;20422;-82
2023/04/19 03:25:52;;;;;;;13.93;7.88;;;;;;;;;;4939825;29;20032;-82
2023/04/19 03:28:18;;;;;;;11.77;6.35;;;;;;;;;;4938566;29;20398;-81
2023/04/19 03:30:44;;;;;;;8.02;5.40;;;;;;;;;;4939107;29;20032;-81
2023/04/19 03:33:11;;;;;;;9.63;5.47;;;;;;;;;;4938908;29;20402;-81
2023/04/19 03:35:37;;;;;;;8.93;5.65;;;;;;;;;;4928127;29;20040;-81
2023/04/19 03:38:03;;;;;;;8.02;5.63;;;;;;;;;;4940970;29;20032;-81
2023/04/19 03:40:33;;;;;;;9.75;6.03;;;;;;;;;;4942380;29;20047;-80
2023/04/19 03:42:59;;;;;;;9.15;6.47;;;;;;;;;;4943417;29;20106;-78
2023/04/19 03:45:26;;;;;;;9.07;7.28;;;;;;;;;;4942455;29;20374;-78
2023/04/19 03:47:52;;;;;;;8.00;6.32;;;;;;;;;;4943021;29;20330;-78
2023/04/19 03:50:18;;;;;;;9.15;5.18;;;;;;;;;;4941867;29;20101;-78
2023/04/19 03:52:44;;;;;;;8.50;5.55;;;;;;;;;;4943158;29;20027;-77
2023/04/19 03:55:11;;;;;;;9.73;5.65;;;;;;;;;;4942624;29;20441;-78
2023/04/19 03:57:37;;;;;;;7.13;5.05;;;;;;;;;;4943125;29;20111;-78
2023/04/19 04:00:07;;;;;;;10.00;5.43;;;;;;;;;;4941888;29;20020;-78
2023/04/19 04:02:33;;;;;;;9.05;6.00;;;;;;;;;;4942555;29;20039;-78
2023/04/19 04:04:59;;;;;;;8.07;4.95;;;;;;;;;;4942894;29;20449;-78
2023/04/19 04:07:25;;;;;;;7.43;4.50;;;;;;;;;;4942732;29;20058;-78
2023/04/19 04:09:51;;;;;;;7.40;4.85;;;;;;;;;;4941592;29;20064;-77
2023/04/19 04:12:18;;;;;;;11.63;4.95;;;;;;;;;;4942534;29;20038;-78
2023/04/19 04:14:44;;;;;;;11.23;4.80;;;;;;;;;;4942831;29;20027;-78
2023/04/19 04:17:10;;;;;;;8.15;5.45;;;;;;;;;;4942589;29;20028;-78
2023/04/19 04:19:36;;;;;;;8.32;5.25;;;;;;;;;;4941522;29;20036;-78
2023/04/19 04:22:03;;;;;;;9.57;7.10;;;;;;;;;;4942345;29;20159;-78
2023/04/19 04:24:31;;;;;;;11.45;8.30;;;;;;;;;;4942227;29;20114;-78
2023/04/19 04:26:59;;;;;;;8.85;5.75;;;;;;;;;;4942237;29;20040;-78
2023/04/19 04:29:26;;;;;;;9.70;7.45;;;;;;;;;;4942387;29;20028;-78
2023/04/19 04:31:52;;;;;;;12.25;8.13;;;;;;;;;;4941362;29;20036;-78
2023/04/19 04:34:19;;;;;;;10.10;5.90;;;;;;;;;;4942170;29;20036;-78
2023/04/19 04:36:46;;;;;;;8.05;5.22;;;;;;;;;;4942195;29;20415;-78
2023/04/19 04:39:12;;;;;;;7.78;4.65;;;;;;;;;;4941040;29;20047;-78
2023/04/19 04:41:40;;;;;;;8.35;4.82;;;;;;;;;;4942089;29;20059;-77
2023/04/19 04:44:07;;;;;;;8.45;5.10;;;;;;;;;;4942169;29;20091;-78
2023/04/19 04:46:34;;;;;;;6.55;4.88;;;;;;;;;;4942095;29;20115;-78
2023/04/19 04:49:00;;;;;;;6.97;4.97;;;;;;;;;;4941630;29;20128;-78
2023/04/19 04:51:26;;;;;;;10.48;5.07;;;;;;;;;;4940671;29;20040;-78
2023/04/19 04:53:52;;;;;;;9.02;4.70;;;;;;;;;;4942133;29;20292;-78
2023/04/19 04:56:19;;;;;;;17.60;5.75;;;;;;;;;;4940950;29;20296;-78
2023/04/19 04:58:45;;;;;;;9.35;5.10;;;;;;;;;;4940876;29;20039;-78
2023/04/19 05:01:11;;;;;;;8.18;5.28;;;;;;;;;;4941849;29;20027;-78
2023/04/19 05:03:37;;;;;;;9.95;5.47;;;;;;;;;;4940744;29;20057;-78
2023/04/19 05:06:03;;;;;;;10.05;5.60;;;;;;;;;;4940571;29;20036;-78
2023/04/19 05:08:29;;;;;;;9.43;4.97;;;;;;;;;;4941232;29;20032;-78
2023/04/19 05:10:55;;;;;;;7.53;4.93;;;;;;;;;;4940485;29;20054;-78
2023/04/19 05:13:21;;;;;;;13.63;5.68;;;;;;;;;;4941440;29;20056;-78
2023/04/19 05:15:47;;;;;;;10.35;5.70;;;;;;;;;;4941673;29;20027;-78
2023/04/19 05:18:13;;;;;;;8.88;5.57;;;;;;;;;;4941510;29;20347;-78
2023/04/19 05:20:39;;;;;;;7.95;5.35;;;;;;;;;;4941367;29;20359;-78
2023/04/19 05:23:06;;;;;;;14.20;7.38;;;;;;;;;;4941232;29;20051;-78
2023/04/19 05:25:33;;;;;;;17.90;11.07;;;;;;;;;;4940359;29;20118;-78
2023/04/19 05:27:59;;;;;;;25.40;11.57;;;;;;;;;;4940212;29;20046;-78
2023/04/19 05:30:25;;;;;;;31.50;13.52;;;;;;;;;;4941431;29;20031;-78
2023/04/19 05:32:51;;;;;;;22.02;10.43;;;;;;;;;;4941192;29;20407;-78
2023/04/19 05:35:18;;;;;;;27.35;11.57;;;;;;;;;;4940246;29;20036;-78
2023/04/19 05:37:44;;;;;;;30.83;14.00;;;;;;;;;;4941145;29;20024;-78
2023/04/19 05:40:10;;;;;;;51.80;19.83;;;;;;;;;;4940032;29;20024;-78
2023/04/19 05:42:38;;;;;;;43.88;17.75;;;;;;;;;;4941250;29;20032;-77
2023/04/19 05:45:06;;;;;;;33.22;14.75;;;;;;;;;;4941169;29;20055;-78
2023/04/19 05:47:32;;;;;;;29.75;15.23;;;;;;;;;;4939840;29;20046;-78
2023/04/19 05:49:58;;;;;;;17.33;10.70;;;;;;;;;;4940854;29;20036;-78
2023/04/19 05:52:24;;;;;;;18.88;10.32;;;;;;;;;;4939631;29;20079;-78
2023/04/19 05:54:50;;;;;;;47.35;19.65;;;;;;;;;;4939608;29;20027;-78
2023/04/19 05:57:16;;;;;;;18.58;9.23;;;;;;;;;;4940540;29;20051;-78
2023/04/19 05:59:42;;;;;;;14.30;9.73;;;;;;;;;;4940606;29;20019;-78
2023/04/19 06:02:09;;;;;;;10.52;6.25;;;;;;;;;;4940193;29;20032;-78
2023/04/19 06:04:35;;;;;;;18.05;7.20;;;;;;;;;;4940749;29;20043;-78
2023/04/19 06:07:01;;;;;;;16.67;9.00;;;;;;;;;;4939396;29;20035;-78
2023/04/19 06:09:27;;;;;;;11.50;6.60;;;;;;;;;;4940252;29;20039;-78
2023/04/19 06:11:53;;;;;;;11.07;6.68;;;;;;;;;;4940230;29;20048;-77
2023/04/19 06:14:20;;;;;;;15.32;6.28;;;;;;;;;;4939361;29;20445;-77
2023/04/19 06:16:46;;;;;;;11.48;5.30;;;;;;;;;;4940448;29;20075;-78
2023/04/19 06:19:12;;;;;;;13.80;6.35;;;;;;;;;;4940345;29;20027;-77
2023/04/19 06:21:38;;;;;;;6.22;4.55;;;;;;;;;;4939248;29;20035;-78
2023/04/19 06:24:06;;;;;;;14.02;5.53;;;;;;;;;;4939031;29;20308;-78
2023/04/19 06:26:32;;;;;;;11.48;6.72;;;;;;;;;;4940341;29;20027;-78
2023/04/19 06:28:58;;;;;;;14.63;9.02;;;;;;;;;;4939016;29;20075;-78
2023/04/19 06:31:24;;;;;;;24.02;10.68;;;;;;;;;;4939803;29;20035;-78
2023/04/19 06:33:50;;;;;;;15.30;8.65;;;;;;;;;;4940755;29;20339;-77
2023/04/19 06:36:16;;;;;;;20.40;9.05;;;;;;;;;;4939006;29;20414;-78
2023/04/19 06:38:45;;;;;;;17.08;8.48;;;;;;;;;;4940056;29;20027;-78
2023/04/19 06:41:11;;;;;;;23.65;10.50;;;;;;;;;;4939982;29;20040;-78
2023/04/19 06:43:39;;;;;;;38.42;13.85;;;;;;;;;;4940025;29;20039;-78
2023/04/19 06:46:05;;;;;;;18.30;10.07;;;;;;;;;;4940099;29;20055;-77
2023/04/19 06:48:33;;;;;;;17.38;8.60;;;;;;;;;;4939757;29;20414;-78
2023/04/19 06:50:59;;;;;;;11.35;6.45;;;;;;;;;;4939862;29;20110;-78
2023/04/19 06:53:28;;;;;;;9.50;5.32;;;;;;;;;;4940058;29;20027;-78
2023/04/19 06:56:01;;;;;;;12.77;6.20;;;;;;;;;;4939963;29;20410;-78
2023/04/19 06:58:28;;;;;;;11.02;6.10;;;;;;;;;;4939954;29;20066;-78
2023/04/19 07:00:54;;;;;;;17.67;6.00;;;;;;;;;;4938818;29;20062;-78
2023/04/19 07:03:20;;;;;;;9.85;6.30;;;;;;;;;;4939967;29;20082;-78
2023/04/19 07:05:46;;;;;;;13.55;7.55;;;;;;;;;;4939616;29;20038;-78
2023/04/19 07:08:12;;;;;;;10.93;6.95;;;;;;;;;;4939932;29;20032;-78
2023/04/19 07:10:38;;;;;;;17.92;12.27;;;;;;;;;;4939891;29;20024;-78
2023/04/19 07:13:05;;;;;;;26.05;16.63;;;;;;;;;;4943882;29;20075;-78
2023/04/19 07:15:31;;;;;;;39.35;23.35;;;;;;;;;;4946119;29;20027;-78
2023/04/19 07:17:57;;;;;;;31.88;19.92;;;;;;;;;;4946125;29;20410;-78
2023/04/19 07:20:23;;;;;;;12.98;6.70;;;;;;;;;;4944945;29;20041;-78
2023/04/19 07:22:49;;;;;;;13.30;7.30;;;;;;;;;;4945706;29;20048;-78
2023/04/19 07:25:15;;;;;;;13.15;7.97;;;;;;;;;;4945946;29;20027;-78
2023/04/19 07:27:41;;;;;;;9.70;6.43;;;;;;;;;;4946117;29;20035;-78
2023/04/19 07:30:07;;;;;;;10.10;5.88;;;;;;;;;;4945855;29;20083;-78
2023/04/19 07:32:35;;;;;;;13.65;7.20;;;;;;;;;;4945766;29;20039;-78
2023/04/19 07:35:01;;;;;;;11.63;7.80;;;;;;;;;;4945756;29;20422;-77
2023/04/19 07:37:27;;;;;;;14.70;7.07;;;;;;;;;;4946056;29;20035;-78
2023/04/19 07:39:53;;;;;;;12.30;8.00;;;;;;;;;;4945850;29;20035;-78
2023/04/19 07:42:20;;;;;;;10.63;7.70;;;;;;;;;;4945934;29;20032;-78
2023/04/19 07:44:46;;;;;;;15.75;8.93;;;;;;;;;;4944351;29;20114;-78
2023/04/19 07:47:12;;;;;;;15.07;7.93;;;;;;;;;;4945873;29;20023;-78
2023/04/19 07:49:38;;;;;;;12.25;7.40;;;;;;;;;;4945651;29;20152;-78
2023/04/19 07:52:07;;;;;;;13.10;7.60;;;;;;;;;;4945461;29;20124;-78
2023/04/19 07:54:33;;;;;;;13.95;10.30;;;;;;;;;;4945462;29;20051;-78
2023/04/19 07:56:59;;;;;;;12.13;6.85;;;;;;;;;;4945715;29;20031;-78
2023/04/19 07:59:25;;;;;;;35.58;17.13;;;;;;;;;;4945714;29;20082;-78
2023/04/19 08:01:51;;;;;;;24.27;14.52;;;;;;;;;;4945722;29;20051;-78
2023/04/19 08:04:18;;;;;;;17.95;12.63;;;;;;;;;;4944395;29;20027;-78
2023/04/19 08:06:45;;;;;;;22.52;15.23;;;;;;;;;;4945604;29;20038;-78
2023/04/19 08:09:11;;;;;;;19.20;12.00;;;;;;;;;;4945754;29;20024;-78
2023/04/19 08:11:37;;;;;;;11.27;8.55;;;;;;;;;;4944286;29;20035;-78
2023/04/19 08:14:03;;;;;;;14.52;8.88;;;;;;;;;;4945613;29;20020;-78
2023/04/19 08:16:29;;;;;;;15.98;8.70;;;;;;;;;;4945613;29;20024;-78
2023/04/19 08:18:55;;;;;;;14.52;9.05;;;;;;;;;;4944544;29;20031;-78
2023/04/19 08:21:21;;;;;;;14.90;8.77;;;;;;;;;;4945117;29;20043;-78
2023/04/19 08:23:47;;;;;;;15.65;9.20;;;;;;;;;;4942745;29;20047;-78
2023/04/19 08:26:13;;;;;;;21.05;10.10;;;;;;;;;;4942357;29;20040;-78
2023/04/19 08:28:39;;;;;;;16.15;8.55;;;;;;;;;;4941300;29;20035;-78
2023/04/19 08:31:09;;;;;;;12.82;7.90;;;;;;;;;;4942195;29;20035;-78
2023/04/19 08:33:35;;;;;;;12.38;8.00;;;;;;;;;;4942533;29;20027;-78
2023/04/19 08:36:01;;;;;;;49.97;17.80;;;;;;;;;;4941051;29;20115;-78
2023/04/19 08:38:27;;;;;;;23.75;10.82;;;;;;;;;;4942474;29;20144;-78
2023/04/19 08:40:54;;;;;;;21.75;10.93;;;;;;;;;;4941126;29;20027;-78
2023/04/19 08:43:21;;;;;;;11.50;7.93;;;;;;;;;;4942125;29;20156;-78
2023/04/19 08:45:50;;;;;;;14.57;8.20;;;;;;;;;;4942084;29;20433;-78
2023/04/19 08:48:16;;;;;;;12.00;7.95;;;;;;;;;;4940935;29;20035;-78
2023/04/19 08:50:45;;;;;;;13.55;8.23;;;;;;;;;;4940780;29;20040;-78
2023/04/19 08:53:11;;;;;;;17.08;11.63;;;;;;;;;;4940767;29;20381;-78
2023/04/19 08:55:38;;;;;;;12.40;8.55;;;;;;;;;;4942097;29;20330;-78
2023/04/19 08:58:04;;;;;;;16.90;8.05;;;;;;;;;;4942028;29;20052;-78
2023/04/19 09:00:32;;;;;;;11.25;7.80;;;;;;;;;;4941916;29;20063;-78
2023/04/19 09:02:59;;;;;;;14.27;9.52;;;;;;;;;;4940670;29;20055;-78
2023/04/19 09:05:25;;;;;;;14.57;8.32;;;;;;;;;;4941698;29;20039;-78
2023/04/19 09:07:51;;;;;;;16.90;9.27;;;;;;;;;;4941762;29;20033;-78
2023/04/19 09:10:18;;;;;;;22.55;10.23;;;;;;;;;;4941724;29;20039;-78
2023/04/19 09:12:59;;;;;;;17.98;10.27;;;;;;;;;;4941770;29;20027;-78
2023/04/19 09:15:35;;;;;;;18.87;12.70;;;;;;;;;;4941583;29;20519;-78
2023/04/19 09:18:06;;;;;;;12.35;7.82;;;;;;;;;;4940532;29;20028;-78
2023/04/19 09:20:44;;;;;;;10.23;7.28;;;;;;;;;;4941491;29;20028;-78
2023/04/19 09:23:19;;;;;;;16.73;9.43;;;;;;;;;;4941209;29;20047;-78
2023/04/19 09:25:51;;;;;;;18.33;8.70;;;;;;;;;;4940285;29;20454;-78
2023/04/19 09:28:17;;;;;;;14.48;8.18;;;;;;;;;;4941330;29;20035;-78
2023/04/19 09:30:43;;;;;;;15.13;8.63;;;;;;;;;;4941370;29;20106;-78
2023/04/19 09:33:10;;;;;;;23.08;14.70;;;;;;;;;;4941174;29;20425;-78
2023/04/19 09:35:54;;;;;;;16.95;9.90;;;;;;;;;;4939090;29;20079;-78
2023/04/19 09:38:20;;;;;;;25.77;14.95;;;;;;;;;;4941169;29;20410;-78
2023/04/19 09:40:46;;;;;;;11.27;7.28;;;;;;;;;;4939824;29;20411;-78
2023/04/19 09:43:12;;;;;;;15.88;10.00;;;;;;;;;;4941093;29;20374;-78
2023/04/19 09:45:42;;;;;;;13.10;8.68;;;;;;;;;;4940915;29;20466;-78
2023/04/19 09:48:09;;;;;;;18.77;10.98;;;;;;;;;;4940900;29;20052;-77
2023/04/19 09:50:35;;;;;;;17.95;9.88;;;;;;;;;;4940976;29;20055;-78
2023/04/19 09:53:02;;;;;;;27.92;14.38;;;;;;;;;;4940742;29;20036;-78
2023/04/19 09:55:28;;;;;;;27.35;15.95;;;;;;;;;;4940823;29;20047;-78
2023/04/19 09:57:54;;;;;;;15.70;9.02;;;;;;;;;;4940703;29;20038;-78
2023/04/19 10:00:20;;;;;;;13.63;9.50;;;;;;;;;;4940702;29;20024;-78
2023/04/19 10:02:53;;;;;;;14.15;7.35;;;;;;;;;;4940684;29;20031;-77
2023/04/19 10:05:21;;;;;;;13.98;8.65;;;;;;;;;;4940675;29;20110;-77
2023/04/19 10:07:48;;;;;;;12.48;7.53;;;;;;;;;;4940520;29;20622;-77
2023/04/19 10:10:16;;;;;;;14.32;8.77;;;;;;;;;;4940223;29;20078;-78
2023/04/19 10:12:45;;;;;;;13.55;8.40;;;;;;;;;;4940315;29;20062;-78
2023/04/19 10:15:13;;;;;;;17.48;9.82;;;;;;;;;;4940573;29;20042;-77
2023/04/19 10:17:39;;;;;;;11.30;8.02;;;;;;;;;;4940489;29;20027;-77
2023/04/19 10:20:07;;;;;;;15.05;9.85;;;;;;;;;;4940405;29;20319;-77
2023/04/19 10:22:37;;;;;;;37.22;18.58;;;;;;;;;;4940087;29;20036;-77
2023/04/19 10:25:12;;;;;;;37.13;18.67;;;;;;;;;;4939174;29;20043;-77
2023/04/19 10:27:39;;;;;;;17.10;9.15;;;;;;;;;;4940238;29;20330;-78
2023/04/19 10:30:09;;;;;;;14.35;9.18;;;;;;;;;;4940359;29;20354;-77
2023/04/19 10:32:42;;;;;;;10.57;7.78;;;;;;;;;;4939741;29;20047;-77
2023/04/19 10:35:18;;;;;;;14.25;7.90;;;;;;;;;;4940088;29;20036;-77
2023/04/19 10:38:07;;;;;;;17.58;10.10;;;;;;;;;;4940338;29;20588;-77
2023/04/19 10:40:55;;;;;;;16.70;10.13;;;;;;;;;;4938982;29;20031;-78
2023/04/19 10:43:24;;;;;;;19.33;11.75;;;;;;;;;;4940048;29;20019;-78
2023/04/19 10:45:51;;;;;;;28.10;14.32;;;;;;;;;;4939969;29;20024;-77
2023/04/19 10:48:36;;;;;;;32.05;16.25;;;;;;;;;;4938696;29;20065;-77
2023/04/19 10:51:02;;;;;;;22.50;12.13;;;;;;;;;;4939983;29;20058;-78
2023/04/19 10:53:45;;;;;;;14.20;8.23;;;;;;;;;;4938713;29;20032;-77
2023/04/19 10:56:12;;;;;;;12.73;7.50;;;;;;;;;;4938746;29;20050;-77
2023/04/19 10:58:56;;;;;;;14.77;7.68;;;;;;;;;;4939806;29;20383;-78
2023/04/19 11:01:43;;;;;;;18.95;10.43;;;;;;;;;;4939995;29;20028;-78
2023/04/19 11:04:10;;;;;;;16.35;10.80;;;;;;;;;;4938527;29;20024;-77
2023/04/19 11:06:36;;;;;;;12.32;9.45;;;;;;;;;;4938795;29;20031;-77
2023/04/19 11:09:05;;;;;;;15.63;9.48;;;;;;;;;;4939724;29;20035;-78
2023/04/19 11:11:35;;;;;;;12.63;8.90;;;;;;;;;;4938472;29;20055;-78
2023/04/19 11:14:03;;;;;;;14.30;8.63;;;;;;;;;;4939648;29;20075;-78
2023/04/19 11:16:29;;;;;;;16.40;8.23;;;;;;;;;;4938561;29;20024;-77
2023/04/19 11:18:55;;;;;;;19.52;9.70;;;;;;;;;;4938575;29;20023;-78
2023/04/19 11:21:22;;;;;;;22.83;11.30;;;;;;;;;;4938446;29;20040;-78
2023/04/19 11:23:49;;;;;;;26.42;16.67;;;;;;;;;;4939341;29;20070;-78
2023/04/19 11:26:15;;;;;;;16.85;9.02;;;;;;;;;;4939363;29;20024;-78
2023/04/19 11:28:41;;;;;;;22.15;11.98;;;;;;;;;;4938229;29;20051;-78
2023/04/19 11:31:07;;;;;;;15.55;9.35;;;;;;;;;;4938461;29;20174;-78
2023/04/19 11:33:36;;;;;;;16.70;9.35;;;;;;;;;;4938302;29;20035;-78
2023/04/19 11:36:03;;;;;;;16.55;9.77;;;;;;;;;;4939533;29;20038;-78
2023/04/19 11:38:30;;;;;;;29.73;15.75;;;;;;;;;;4938475;29;20082;-78
2023/04/19 11:41:03;;;;;;;22.80;10.70;;;;;;;;;;4939525;29;20027;-78
2023/04/19 11:43:36;;;;;;;23.13;11.13;;;;;;;;;;4939637;29;20063;-78
2023/04/19 11:46:09;;;;;;;16.83;10.05;;;;;;;;;;4938383;29;20028;-78
2023/04/19 11:48:35;;;;;;;11.32;8.30;;;;;;;;;;4939346;29;20106;-78
2023/04/19 11:51:01;;;;;;;22.75;12.40;;;;;;;;;;4939289;29;20071;-78
2023/04/19 11:53:28;;;;;;;19.48;9.80;;;;;;;;;;4939205;29;20031;-77
2023/04/19 11:55:56;;;;;;;23.30;12.48;;;;;;;;;;4939498;29;20047;-77
2023/04/19 11:58:43;;;;;;;12.85;8.07;;;;;;;;;;4939765;29;20032;-78
2023/04/19 12:01:09;;;;;;;21.83;11.48;;;;;;;;;;4942924;29;20051;-77
2023/04/19 12:03:41;;;;;;;13.38;8.73;;;;;;;;;;4943086;29;20058;-78
2023/04/19 12:06:10;;;;;;;20.83;11.55;;;;;;;;;;4942635;29;20088;-78
2023/04/19 12:08:37;;;;;;;19.70;11.57;;;;;;;;;;4942932;29;20047;-78
2023/04/19 12:11:04;;;;;;;19.17;11.00;;;;;;;;;;4942647;29;20063;-78
2023/04/19 12:13:30;;;;;;;17.08;9.55;;;;;;;;;;4942804;29;20036;-78
2023/04/19 12:15:56;;;;;;;14.48;8.25;;;;;;;;;;4941652;29;20036;-78
2023/04/19 12:18:22;;;;;;;14.82;8.93;;;;;;;;;;4942866;29;20019;-77
2023/04/19 12:20:49;;;;;;;18.15;9.88;;;;;;;;;;4942611;29;20019;-78
2023/04/19 12:23:17;;;;;;;14.45;8.73;;;;;;;;;;4942325;29;20043;-78
2023/04/19 12:25:44;;;;;;;21.35;11.57;;;;;;;;;;4942510;29;20043;-78
2023/04/19 12:28:10;;;;;;;16.05;8.20;;;;;;;;;;4942407;29;20414;-78
2023/04/19 12:30:36;;;;;;;10.63;7.93;;;;;;;;;;4942439;29;20035;-77
2023/04/19 12:33:02;;;;;;;17.15;9.02;;;;;;;;;;4942569;29;20044;-78
2023/04/19 12:35:28;;;;;;;14.00;7.85;;;;;;;;;;4942105;29;20040;-78
2023/04/19 12:37:56;;;;;;;8.55;6.03;;;;;;;;;;4941992;29;20028;-78
2023/04/19 12:40:22;;;;;;;10.15;6.22;;;;;;;;;;4942300;29;20028;-78
2023/04/19 12:42:48;;;;;;;10.15;7.07;;;;;;;;;;4942377;29;20119;-78
2023/04/19 12:45:14;;;;;;;17.20;9.45;;;;;;;;;;4942288;29;20075;-78
2023/04/19 12:47:41;;;;;;;10.00;5.90;;;;;;;;;;4940985;29;20032;-78
2023/04/19 12:50:08;;;;;;;13.80;7.10;;;;;;;;;;4942093;29;20087;-78
2023/04/19 12:52:37;;;;;;;18.33;10.40;;;;;;;;;;4941853;29;20024;-78
2023/04/19 12:55:05;;;;;;;16.67;8.88;;;;;;;;;;4942221;29;20024;-78
2023/04/19 12:57:32;;;;;;;7.93;5.75;;;;;;;;;;4940803;29;20123;-78
2023/04/19 12:59:58;;;;;;;15.50;6.43;;;;;;;;;;4941923;29;20039;-78
2023/04/19 13:02:24;;;;;;;9.43;5.95;;;;;;;;;;4941766;29;20028;-78
2023/04/19 13:04:50;;;;;;;19.33;10.18;;;;;;;;;;4941773;29;20091;-78
2023/04/19 13:07:16;;;;;;;19.63;11.25;;;;;;;;;;4940051;29;20027;-78
2023/04/19 13:09:42;;;;;;;16.00;10.15;;;;;;;;;;4941521;29;20131;-78
2023/04/19 13:12:08;;;;;;;12.02;6.95;;;;;;;;;;4939878;29;20070;-78
2023/04/19 13:14:34;;;;;;;15.73;9.45;;;;;;;;;;4957275;29;20027;-80
2023/04/19 13:17:00;;;;;;;13.00;9.57;;;;;;;;;;4961392;29;20023;-87
2023/04/19 13:19:26;;;;;;;16.77;9.85;;;;;;;;;;4956789;29;20019;-86
2023/04/19 13:21:53;;;;;;;14.15;8.90;;;;;;;;;;4942015;29;20470;-87
2023/04/19 13:24:19;;;;;;;13.10;9.98;;;;;;;;;;4941480;29;20434;-87
2023/04/19 13:26:45;;;;;;;15.48;10.02;;;;;;;;;;4945141;29;20039;-87
2023/04/19 13:29:11;;;;;;;15.48;9.20;;;;;;;;;;4941570;29;20047;-86
2023/04/19 13:31:37;;;;;;;16.17;9.18;;;;;;;;;;4942596;29;20035;-86
2023/04/19 13:34:04;;;;;;;12.85;9.63;;;;;;;;;;4940833;29;20062;-87
2023/04/19 13:36:30;;;;;;;15.38;10.60;;;;;;;;;;4940667;29;20031;-86
2023/04/19 13:38:57;;;;;;;16.13;10.60;;;;;;;;;;4941546;29;20173;-87
2023/04/19 13:44:45;;;;;;;15.63;9.75;;;;;;;;;;4941899;29;20071;-86
2023/04/19 13:47:11;;;;;;;27.08;15.38;;;;;;;;;;4941539;29;20027;-87
2023/04/19 13:49:37;;;;;;;26.67;16.20;;;;;;;;;;4940544;29;20050;-85
2023/04/19 13:52:03;;;;;;;52.72;19.70;;;;;;;;;;4937241;29;20079;-85
2023/04/19 13:54:29;;;;;;;93.20;29.67;;;;;;;;;;4944235;29;20031;-93
2023/04/19 14:00:12;;;;;;;21.45;11.45;;;;;;;;;;4941842;29;20034;-89
2023/04/19 14:02:38;;;;;;;18.15;11.70;;;;;;;;;;4959469;29;20027;-89
2023/04/19 14:05:04;;;;;;;45.00;18.08;;;;;;;;;;4948952;28;20052;-83
2023/04/19 14:07:31;;;;;;;26.85;14.45;;;;;;;;;;4940880;29;20051;-82
2023/04/19 14:09:57;;;;;;;33.55;14.40;;;;;;;;;;4940920;29;20087;-82
2023/04/19 14:12:43;;;;;;;16.02;10.88;;;;;;;;;;4940657;29;20046;-82
2023/04/19 14:15:10;;;;;;;30.95;14.32;;;;;;;;;;4939179;29;20035;-82
2023/04/19 14:17:36;;;;;;;25.17;12.70;;;;;;;;;;4929693;29;20032;-82
2023/04/19 14:20:02;;;;;;;20.42;11.23;;;;;;;;;;4936900;29;20110;-82
2023/04/19 14:22:30;;;;;;;19.67;11.38;;;;;;;;;;4929865;29;20024;-82
2023/04/19 14:24:56;;;;;;;16.58;10.63;;;;;;;;;;4921646;29;20319;-82
2023/04/19 14:27:23;;;;;;;13.57;10.10;;;;;;;;;;4921169;29;20428;-82
2023/04/19 14:29:49;;;;;;;17.13;11.35;;;;;;;;;;4921295;29;20411;-82
2023/04/19 14:32:15;;;;;;;14.05;10.93;;;;;;;;;;4926573;29;20450;-81
2023/04/19 14:34:41;;;;;;;16.23;10.82;;;;;;;;;;4937247;29;20039;-82